FW0324 Weather Reports


Display with metric or nautical units.
time (UTC)temp
F
wind
direction
speed
MPH
gust
MPH
rain 1hr
in
rain 24hr
in
rain mn
in
humidity
%
barometer
mb
20180820204520 80 199 1.0 3.0 0.00 0.43 0.35 85 1017.1
20180820203022 81 216 3.0 11.0 0.01 0.43 0.35 84 1017.3
20180820201519 83 167 2.0 6.0 0.02 0.43 0.35 84 1017.0
20180820200022 82 243 0.0 2.0 0.02 0.43 0.35 84 1016.8
20180820194517 79 121 1.0 4.0 0.02 0.43 0.35 91 1016.7
20180820193017 78 226 0.0 6.0 0.01 0.42 0.34 92 1017.2
20180820191516 80 224 4.0 10.0 0.00 0.41 0.33 86 1017.8
20180820190026 78 215 1.0 4.0 0.00 0.41 0.33 92 1018.1
20180820184527 76 173 0.0 3.0 0.00 0.41 0.33 94 1017.5
20180820183028 77 304 0.0 1.0 0.05 0.41 0.33 94 1017.6
20180820181514 77 237 0.0 4.0 0.32 0.41 0.33 92 1017.6
20180820180043 77 200 1.0 7.0 0.32 0.41 0.33 93 1018.2
20180820174519 76 287 0.0 4.0 0.32 0.41 0.33 94 1017.6
20180820173013 77 283 6.0 30.0 0.26 0.35 0.27 86 1018.4
20180820171510 91 266 2.0 9.0 0.00 0.09 0.01 72 1017.7
20180820170020 89 229 2.0 12.0 0.00 0.09 0.01 75 1017.9
20180820164506 90 194 3.0 9.0 0.00 0.09 0.01 73 1017.9
20180820163007 89 178 3.0 10.0 0.00 0.09 0.01 73 1018.1
20180820161506 88 224 5.0 12.0 0.00 0.09 0.01 75 1018.4
20180820160100 89 187 1.0 12.0 0.00 0.09 0.01 77 1018.4
20180820154620 87 193 3.0 8.0 0.00 0.09 0.01 81 1018.6
20180820153059 87 238 3.0 9.0 0.00 0.09 0.01 83 1018.5
20180820151551 86 244 2.0 5.0 0.00 0.09 0.01 83 1018.5
20180820150046 86 223 2.0 7.0 0.00 0.09 0.01 85 1018.3
20180820144553 85 206 3.0 8.0 0.00 0.09 0.01 85 1018.2
20180820143041 84 235 1.0 6.0 0.00 0.09 0.01 88 1018.2
20180820141538 82 228 2.0 6.0 0.00 0.09 0.01 89 1018.1
20180820140033 81 174 1.0 6.0 0.00 0.09 0.01 92 1017.8
20180820134545 80 194 2.0 6.0 0.00 0.09 0.01 93 1017.8
20180820133100 78 215 1.0 4.0 0.00 0.09 0.01 96 1017.6
20180820131539 77 223 1.0 4.0 0.00 0.09 0.01 99 1017.7
20180820130026 77 228 0.0 0.0 0.00 0.09 0.01 100 1017.6
20180820124541 76 239 0.0 0.0 0.00 0.09 0.01 100 1017.4
20180820123028 75 235 0.0 0.0 0.00 0.09 0.01 100 1017.3
20180820121510 74 233 0.0 0.0 0.00 0.09 0.01 100 1017.1
20180820120011 73 232 0.0 0.0 0.00 0.09 0.01 100 1016.9
20180820114508 73 231 0.0 0.0 0.00 0.09 0.01 100 1016.8
20180820113022 73 231 0.0 0.0 0.00 0.09 0.01 100 1016.8
20180820111505 73 230 0.0 0.0 0.00 0.09 0.01 100 1016.6
20180820110009 73 228 0.0 0.0 0.00 0.09 0.01 100 1016.5
20180820104503 73 228 0.0 0.0 0.00 0.09 0.01 100 1016.6
20180820103005 73 228 0.0 0.0 0.00 0.09 0.01 100 1016.5
20180820101505 73 226 0.0 0.0 0.00 0.09 0.01 100 1016.4
20180820100103 74 226 0.0 0.0 0.00 0.09 0.01 100 1016.3
20180820094626 73 239 0.0 0.0 0.00 0.09 0.01 100 1016.1
20180820093100 73 239 0.0 0.0 0.00 0.09 0.01 99 1016.3
20180820091626 73 239 0.0 0.0 0.00 0.09 0.01 99 1016.2
20180820090119 73 239 0.0 0.0 0.00 0.10 0.01 99 1016.2
20180820084612 74 239 0.0 0.0 0.00 0.10 0.01 99 1016.0
20180820083112 74 239 0.0 0.0 0.00 0.10 0.01 99 1016.2
20180820081555 74 239 0.0 0.0 0.01 0.10 0.01 99 1016.0
20180820080054 74 239 0.0 0.0 0.01 0.10 0.01 99 1016.1
20180820074636 74 239 0.0 0.0 0.01 0.10 0.01 99 1016.1
20180820073114 74 239 0.0 0.0 0.01 0.10 0.01 99 1016.0
20180820071643 74 239 0.0 0.0 0.00 0.09 0.00 99 1016.2
20180820070053 74 239 0.0 0.0 0.00 0.09 0.00 99 1016.2
20180820064602 74 239 0.0 0.0 0.00 0.09 0.00 99 1016.3
20180820063059 74 239 0.0 0.0 0.00 0.09 0.00 99 1016.2
20180820061558 74 239 0.0 0.0 0.00 0.09 0.00 99 1016.2
20180820060108 74 240 0.0 0.0 0.00 0.09 0.00 99 1016.2
20180820054738 74 241 0.0 0.0 0.00 0.09 0.00 99 1016.4
20180820053052 74 240 0.0 0.0 0.00 0.09 0.00 99 1016.4
20180820051551 74 240 0.0 0.0 0.00 0.09 0.00 99 1016.3
20180820050029 74 240 0.0 0.0 0.00 0.09 0.09 99 1016.3
20180820044534 74 239 0.0 0.0 0.00 0.09 0.09 99 1016.4
20180820043144 75 239 0.0 0.0 0.00 0.09 0.09 98 1016.3
20180820041527 75 239 0.0 0.0 0.00 0.09 0.09 98 1016.3
20180820040033 75 237 0.0 0.0 0.00 0.09 0.09 98 1016.1
20180820034527 75 237 0.0 0.0 0.00 0.09 0.09 98 1016.3
20180820033041 75 237 0.0 0.0 0.00 0.09 0.09 98 1016.2
20180820031525 75 234 0.0 0.0 0.00 0.09 0.09 98 1016.1
20180820030024 75 225 0.0 0.0 0.00 0.09 0.09 98 1016.0
20180820024527 75 223 0.0 0.0 0.00 0.09 0.09 98 1015.6
20180820023024 75 221 0.0 1.0 0.00 0.09 0.09 98 1015.7
20180820021546 75 217 0.0 1.0 0.00 0.09 0.09 98 1015.6
20180820020024 75 254 0.0 1.0 0.00 0.09 0.09 97 1015.4
20180820014527 75 254 0.0 0.0 0.00 0.09 0.09 97 1015.3
20180820013023 75 254 0.0 0.0 0.00 0.09 0.09 97 1015.3
20180820011522 75 254 0.0 1.0 0.00 0.09 0.09 96 1015.4
20180820010024 75 254 0.0 1.0 0.00 0.09 0.09 96 1015.3
20180820004551 76 254 0.0 1.0 0.00 0.09 0.09 95 1015.4
20180820003020 76 254 0.0 3.0 0.00 0.09 0.09 95 1015.2
20180820001523 76 240 0.0 1.0 0.00 0.09 0.09 94 1015.1
20180820000025 76 229 0.0 1.0 0.00 0.09 0.09 94 1015.1
20180819234544 76 229 0.0 2.0 0.00 0.09 0.09 95 1015.0
20180819233018 76 222 0.0 2.0 0.00 0.09 0.09 95 1015.0
20180819231526 77 225 0.0 3.0 0.00 0.09 0.09 94 1015.3
20180819230018 77 230 0.0 0.0 0.00 0.09 0.09 93 1015.3
20180819224516 77 220 0.0 2.0 0.01 0.09 0.09 93 1015.4
20180819223016 77 237 0.0 1.0 0.01 0.09 0.09 93 1015.5
20180819221515 77 251 0.0 2.0 0.02 0.09 0.09 94 1016.1
20180819220015 78 250 1.0 3.0 0.02 0.09 0.09 94 1016.1
20180819214518 78 251 0.0 1.0 0.01 0.08 0.08 94 1016.1
20180819213014 79 197 0.0 3.0 0.01 0.08 0.08 92 1016.2
20180819211513 80 192 3.0 12.0 0.06 0.07 0.07 91 1016.4
20180819210032 80 222 1.0 8.0 0.06 0.07 0.07 93 1015.7